createdAt,value
2022-11-30T00:00:55.097Z,88.80
2022-11-30T00:03:28.382Z,98.57
2022-11-30T00:06:07.224Z,89.53
2022-11-30T00:08:40.624Z,92.07
2022-11-30T00:11:16.158Z,95.95
2022-11-30T00:13:50.004Z,94.03
2022-11-30T00:16:23.548Z,101.00
2022-11-30T00:18:57.201Z,109.07
2022-11-30T00:21:32.959Z,117.13
2022-11-30T00:24:07.363Z,86.35
2022-11-30T00:26:40.934Z,91.38
2022-11-30T00:29:14.479Z,81.43
2022-11-30T00:31:47.884Z,75.97
2022-11-30T00:34:21.205Z,74.03
2022-11-30T00:36:56.151Z,81.40
2022-11-30T00:39:35.343Z,67.63
2022-11-30T00:42:09.176Z,67.82
2022-11-30T00:44:42.845Z,64.43
2022-11-30T00:47:16.279Z,72.28
2022-11-30T00:49:49.768Z,72.95
2022-11-30T00:52:24.449Z,78.90
2022-11-30T00:54:58.313Z,70.25
2022-11-30T00:57:31.884Z,72.25
2022-11-30T01:00:05.925Z,62.50
2022-11-30T01:02:39.605Z,62.53
2022-11-30T01:05:13.067Z,51.25
2022-11-30T01:07:48.921Z,50.08
2022-11-30T01:10:23.105Z,54.83
2022-11-30T01:12:56.533Z,52.67
2022-11-30T01:15:30.644Z,52.10
2022-11-30T01:18:03.947Z,55.13
2022-11-30T01:20:41.650Z,50.80
2022-11-30T01:23:16.331Z,53.53
2022-11-30T01:25:55.521Z,57.15
2022-11-30T01:28:29.178Z,53.70
2022-11-30T01:31:04.235Z,50.58
2022-11-30T01:33:37.910Z,55.13
2022-11-30T01:36:14.385Z,44.83
2022-11-30T01:38:50.753Z,46.00
2022-11-30T01:41:26.110Z,53.53
2022-11-30T01:44:26.758Z,49.50
2022-11-30T01:47:01.803Z,48.22
2022-11-30T01:49:39.496Z,43.63
2022-11-30T01:52:16.286Z,46.72
2022-11-30T01:54:55.385Z,44.53
2022-11-30T01:57:35.038Z,40.05
2022-11-30T02:00:11.700Z,39.78
2022-11-30T02:02:56.261Z,38.50
2022-11-30T02:05:30.125Z,45.33
2022-11-30T02:08:03.904Z,47.13
2022-11-30T02:10:42.253Z,44.30
2022-11-30T02:13:34.748Z,45.30
2022-11-30T02:16:17.922Z,44.75
2022-11-30T02:18:59.436Z,42.90
2022-11-30T02:21:40.238Z,43.47
2022-11-30T02:24:34.359Z,47.95
2022-11-30T02:27:30.691Z,45.10
2022-11-30T02:30:10.446Z,46.78
2022-11-30T02:32:49.441Z,43.15
2022-11-30T02:35:26.960Z,60.13
2022-11-30T02:38:03.694Z,53.75
2022-11-30T02:40:36.959Z,50.45
2022-11-30T02:43:10.434Z,46.40
2022-11-30T02:45:51.701Z,46.25
2022-11-30T02:48:33.659Z,49.55
2022-11-30T02:51:09.882Z,49.47
2022-11-30T02:53:43.517Z,46.38
2022-11-30T02:56:18.771Z,47.50
2022-11-30T02:58:52.617Z,46.45
2022-11-30T03:01:27.845Z,52.03
2022-11-30T03:04:01.202Z,43.67
2022-11-30T03:06:34.632Z,49.70
2022-11-30T03:09:08.316Z,46.60
2022-11-30T03:11:41.976Z,41.70
2022-11-30T03:14:15.243Z,47.05
2022-11-30T03:16:50.051Z,44.95
2022-11-30T03:19:23.292Z,50.65
2022-11-30T03:21:56.967Z,46.47
2022-11-30T03:24:30.555Z,42.60
2022-11-30T03:27:03.866Z,44.25
2022-11-30T03:29:37.294Z,26.33
2022-11-30T03:32:11.905Z,29.73
2022-11-30T03:34:45.958Z,26.23
2022-11-30T03:37:19.741Z,25.27
2022-11-30T03:39:57.956Z,23.63
2022-11-30T03:42:31.684Z,27.83
2022-11-30T03:45:05.573Z,27.25
2022-11-30T03:47:40.214Z,25.52
2022-11-30T03:50:13.630Z,25.02
2022-11-30T03:52:46.981Z,27.42
2022-11-30T03:55:20.449Z,25.73
2022-11-30T03:57:53.908Z,24.95
2022-11-30T04:00:27.486Z,26.80
2022-11-30T04:03:02.179Z,26.10
2022-11-30T04:05:36.045Z,23.15
2022-11-30T04:08:09.281Z,24.00
2022-11-30T04:10:42.900Z,25.35
2022-11-30T04:13:16.478Z,24.70
2022-11-30T04:15:51.221Z,26.70
2022-11-30T04:18:27.521Z,26.15
2022-11-30T04:21:02.242Z,22.20
2022-11-30T04:23:37.555Z,24.35
2022-11-30T04:26:14.082Z,28.45
2022-11-30T04:28:47.511Z,22.27
2022-11-30T04:31:20.864Z,24.08
2022-11-30T04:33:56.056Z,25.27
2022-11-30T04:36:29.308Z,27.85
2022-11-30T04:39:02.609Z,25.75
2022-11-30T04:41:35.874Z,25.88
2022-11-30T04:44:09.645Z,24.45
2022-11-30T04:46:43.004Z,25.02
2022-11-30T04:49:18.094Z,25.58
2022-11-30T04:51:51.367Z,21.92
2022-11-30T04:54:25.078Z,25.42
2022-11-30T04:56:58.358Z,25.40
2022-11-30T04:59:31.960Z,21.63
2022-11-30T05:02:05.597Z,20.40
2022-11-30T05:04:40.518Z,21.00
2022-11-30T05:07:14.128Z,21.70
2022-11-30T05:09:47.725Z,25.33
2022-11-30T05:12:21.171Z,23.48
2022-11-30T05:14:54.602Z,21.20
2022-11-30T05:17:27.933Z,22.42
2022-11-30T05:20:02.918Z,22.50
2022-11-30T05:22:36.491Z,21.85
2022-11-30T05:25:10.430Z,22.42
2022-11-30T05:27:43.692Z,23.42
2022-11-30T05:30:17.332Z,21.25
2022-11-30T05:32:50.589Z,22.77
2022-11-30T05:35:25.305Z,21.50
2022-11-30T05:37:58.575Z,20.38
2022-11-30T05:40:32.748Z,23.23
2022-11-30T05:43:06.804Z,21.42
2022-11-30T05:45:40.580Z,22.38
2022-11-30T05:48:13.829Z,22.52
2022-11-30T05:50:48.620Z,22.33
2022-11-30T05:53:21.960Z,20.58
2022-11-30T05:55:55.228Z,18.95
2022-11-30T05:58:28.659Z,19.17
2022-11-30T06:01:01.942Z,20.52
2022-11-30T06:03:37.000Z,19.52
2022-11-30T06:06:11.734Z,20.90
2022-11-30T06:08:45.814Z,18.90
2022-11-30T06:11:19.656Z,20.48
2022-11-30T06:13:52.982Z,20.55
2022-11-30T06:16:26.309Z,18.63
2022-11-30T06:18:59.630Z,20.40
2022-11-30T06:21:34.321Z,21.85
2022-11-30T06:24:08.420Z,18.35
2022-11-30T06:26:41.698Z,18.55
2022-11-30T06:29:15.127Z,19.05
2022-11-30T06:31:48.413Z,23.48
2022-11-30T06:34:21.963Z,20.92
2022-11-30T06:36:58.689Z,24.15
2022-11-30T06:40:04.253Z,21.52
2022-11-30T06:42:25.514Z,20.15
2022-11-30T06:44:59.036Z,20.42
2022-11-30T06:47:32.537Z,24.52
2022-11-30T06:50:08.431Z,19.42
2022-11-30T06:52:43.194Z,18.30
2022-11-30T06:55:16.596Z,20.13
2022-11-30T06:57:49.858Z,19.80
2022-11-30T07:00:23.790Z,20.45
2022-11-30T07:02:57.067Z,23.10
2022-11-30T07:05:30.482Z,20.27
2022-11-30T07:08:05.499Z,19.08
2022-11-30T07:10:41.766Z,17.75
2022-11-30T07:13:16.133Z,19.65
2022-11-30T07:15:49.727Z,18.67
2022-11-30T07:18:28.499Z,17.42
2022-11-30T07:21:06.474Z,18.90
2022-11-30T07:23:58.436Z,23.38
2022-11-30T07:26:31.761Z,19.65
2022-11-30T07:29:05.434Z,18.70
2022-11-30T07:31:39.212Z,18.60
2022-11-30T07:34:13.426Z,34.85
2022-11-30T07:36:47.121Z,20.30
2022-11-30T07:39:21.955Z,18.15
2022-11-30T07:41:56.388Z,19.17
2022-11-30T07:44:32.933Z,19.63
2022-11-30T07:47:06.247Z,19.23
2022-11-30T07:49:40.301Z,19.33
2022-11-30T07:52:13.641Z,17.25
2022-11-30T07:54:48.592Z,18.40
2022-11-30T07:57:22.059Z,19.27
2022-11-30T07:59:55.706Z,33.60
2022-11-30T08:02:29.000Z,28.48
2022-11-30T08:05:02.377Z,20.05
2022-11-30T08:07:35.711Z,16.77
2022-11-30T08:10:11.816Z,15.98
2022-11-30T08:12:45.206Z,17.20
2022-11-30T08:15:20.406Z,15.20
2022-11-30T08:17:55.175Z,15.20
2022-11-30T08:20:28.466Z,17.50
2022-11-30T08:23:01.789Z,19.23
2022-11-30T08:25:37.192Z,18.45
2022-11-30T08:28:10.468Z,18.88
2022-11-30T08:30:43.838Z,17.25
2022-11-30T08:33:17.198Z,19.73
2022-11-30T08:35:50.507Z,36.28
2022-11-30T08:38:26.387Z,17.67
2022-11-30T08:41:01.165Z,16.42
2022-11-30T08:43:34.893Z,16.90
2022-11-30T08:46:34.838Z,16.15
2022-11-30T08:54:51.500Z,15.95
2022-11-30T08:57:26.830Z,15.50
2022-11-30T09:00:00.135Z,16.30
2022-11-30T09:02:34.018Z,15.70
2022-11-30T09:05:07.897Z,15.10
2022-11-30T09:07:41.325Z,16.38
2022-11-30T09:10:14.706Z,16.23
2022-11-30T09:12:49.335Z,17.30
2022-11-30T09:15:23.490Z,14.18
2022-11-30T09:17:56.845Z,15.65
2022-11-30T09:20:30.331Z,18.55
2022-11-30T09:23:03.599Z,17.23
2022-11-30T09:25:36.933Z,15.07
2022-11-30T09:28:12.558Z,16.02
2022-11-30T09:30:45.972Z,13.80
2022-11-30T09:33:19.944Z,15.20
2022-11-30T09:35:57.831Z,15.63
2022-11-30T09:38:31.393Z,15.02
2022-11-30T09:41:08.486Z,13.85
2022-11-30T09:43:52.411Z,16.33
2022-11-30T09:46:29.535Z,16.98
2022-11-30T09:49:06.992Z,15.55
2022-11-30T09:51:46.773Z,17.20
2022-11-30T09:54:23.897Z,18.17
2022-11-30T09:56:57.277Z,17.42
2022-11-30T09:59:34.690Z,15.40
2022-11-30T10:02:17.084Z,15.85
2022-11-30T10:04:50.742Z,18.50
2022-11-30T10:07:44.354Z,15.15
2022-11-30T10:10:32.684Z,16.70
2022-11-30T10:13:27.363Z,18.77
2022-11-30T10:16:13.101Z,15.15
2022-11-30T10:18:56.501Z,17.92
2022-11-30T10:21:43.052Z,16.33
2022-11-30T10:24:30.680Z,17.23
2022-11-30T10:27:17.067Z,15.38
2022-11-30T10:29:52.008Z,15.85
2022-11-30T10:32:34.437Z,17.45
2022-11-30T10:35:20.847Z,14.85
2022-11-30T10:37:55.081Z,16.48
2022-11-30T10:40:35.649Z,14.98
2022-11-30T10:43:18.066Z,17.50
2022-11-30T10:45:52.877Z,17.85
2022-11-30T10:48:35.408Z,16.65
2022-11-30T10:51:11.767Z,14.32
2022-11-30T10:53:45.078Z,14.85
2022-11-30T10:56:18.381Z,16.17
2022-11-30T10:58:58.043Z,14.02
2022-11-30T11:01:34.293Z,14.80
2022-11-30T11:04:14.981Z,14.00
2022-11-30T11:06:52.621Z,15.25
2022-11-30T11:09:34.807Z,15.20
2022-11-30T11:12:16.107Z,16.42
2022-11-30T11:14:49.448Z,15.43
2022-11-30T11:17:26.232Z,14.82
2022-11-30T11:20:00.929Z,15.85
2022-11-30T11:22:35.603Z,13.40
2022-11-30T11:25:12.809Z,15.50
2022-11-30T11:27:52.973Z,15.32
2022-11-30T11:30:31.533Z,15.70
2022-11-30T11:33:19.084Z,16.67
2022-11-30T11:35:56.421Z,15.05
2022-11-30T11:38:32.113Z,15.95
2022-11-30T11:41:08.031Z,15.82
2022-11-30T11:43:59.190Z,16.23
2022-11-30T11:46:34.633Z,14.48
2022-11-30T11:49:19.385Z,14.70
2022-11-30T11:52:03.753Z,17.23
2022-11-30T11:54:42.595Z,16.05
2022-11-30T11:57:18.323Z,16.45
2022-11-30T11:59:56.137Z,15.60
2022-11-30T12:02:38.156Z,15.27
2022-11-30T12:05:15.654Z,14.80
2022-11-30T12:08:03.815Z,15.85
2022-11-30T12:10:57.416Z,15.02
2022-11-30T12:13:34.395Z,15.75
2022-11-30T12:16:21.283Z,14.88
2022-11-30T12:19:01.351Z,16.25
2022-11-30T12:21:47.655Z,15.90
2022-11-30T12:24:48.403Z,15.82
2022-11-30T12:27:31.331Z,14.48
2022-11-30T12:30:12.766Z,15.55
2022-11-30T12:33:07.795Z,16.83
2022-11-30T12:36:00.238Z,17.38
2022-11-30T12:38:43.165Z,16.73
2022-11-30T12:41:32.502Z,16.80
2022-11-30T12:44:28.782Z,18.65
2022-11-30T12:47:16.969Z,19.60
2022-11-30T12:50:04.079Z,13.40
2022-11-30T12:52:46.794Z,16.58
2022-11-30T12:55:30.131Z,17.35
2022-11-30T12:58:12.601Z,15.30
2022-11-30T13:01:00.766Z,10.63
2022-11-30T13:03:43.567Z,9.02
2022-11-30T13:06:20.947Z,7.63
2022-11-30T13:08:59.968Z,8.07
2022-11-30T13:11:38.597Z,7.35
2022-11-30T13:14:17.457Z,7.85
2022-11-30T13:16:53.456Z,8.93
2022-11-30T13:19:51.843Z,8.57
2022-11-30T13:22:32.895Z,8.85
2022-11-30T13:25:34.062Z,9.27
2022-11-30T13:28:20.139Z,7.35
2022-11-30T13:30:59.717Z,10.68
2022-11-30T13:33:48.212Z,10.73
2022-11-30T13:36:32.622Z,13.75
2022-11-30T13:39:22.770Z,15.43
2022-11-30T13:42:38.751Z,14.55
2022-11-30T13:45:32.162Z,17.45
2022-11-30T13:48:31.319Z,15.65
2022-11-30T13:51:05.208Z,12.38
2022-11-30T13:53:39.689Z,10.05
2022-11-30T13:56:35.378Z,9.82
2022-11-30T13:59:36.288Z,9.32
2022-11-30T14:02:59.162Z,11.75
2022-11-30T14:05:41.886Z,10.50
2022-11-30T14:08:39.791Z,9.43
2022-11-30T14:11:43.678Z,10.43
2022-11-30T14:14:47.025Z,11.68
2022-11-30T14:17:26.982Z,12.57
2022-11-30T14:20:03.725Z,11.68
2022-11-30T14:22:41.483Z,9.52
2022-11-30T14:25:17.705Z,11.63
2022-11-30T14:27:56.744Z,10.25
2022-11-30T14:30:34.536Z,10.00
2022-11-30T14:33:19.355Z,11.23
2022-11-30T14:35:57.856Z,11.68
2022-11-30T14:38:32.819Z,10.10
2022-11-30T14:41:20.770Z,10.93
2022-11-30T14:44:02.128Z,10.57
2022-11-30T14:46:36.323Z,10.48
2022-11-30T14:49:17.550Z,11.40
2022-11-30T14:51:53.033Z,10.30
2022-11-30T14:54:41.988Z,10.20
2022-11-30T14:57:24.153Z,11.85
2022-11-30T14:59:58.159Z,11.68
2022-11-30T15:02:37.258Z,11.38
2022-11-30T15:05:16.837Z,9.65
2022-11-30T15:07:51.455Z,10.85
2022-11-30T15:10:30.833Z,12.70
2022-11-30T15:13:04.663Z,12.18
2022-11-30T15:15:41.718Z,9.90
2022-11-30T15:18:17.316Z,8.85
2022-11-30T15:20:55.840Z,12.55
2022-11-30T15:23:29.529Z,10.13
2022-11-30T15:26:10.333Z,13.80
2022-11-30T15:28:48.955Z,12.18
2022-11-30T15:31:22.539Z,13.23
2022-11-30T15:33:55.879Z,13.55
2022-11-30T15:36:35.258Z,12.07
2022-11-30T15:39:15.910Z,15.38
2022-11-30T15:41:54.922Z,13.55
2022-11-30T15:44:40.334Z,14.98
2022-11-30T15:47:26.274Z,13.05
2022-11-30T15:49:59.851Z,19.42
2022-11-30T15:52:35.207Z,24.15
2022-11-30T15:55:42.610Z,18.98
2022-11-30T15:58:34.217Z,13.40
2022-11-30T16:01:11.773Z,33.03
2022-11-30T16:04:06.310Z,42.90
2022-11-30T16:06:47.539Z,18.88
2022-11-30T16:09:23.101Z,16.23
2022-11-30T16:11:57.796Z,16.52
2022-11-30T16:14:32.477Z,14.15
2022-11-30T16:17:09.169Z,18.15
2022-11-30T16:19:42.651Z,14.48
2022-11-30T16:22:17.367Z,15.07
2022-11-30T16:24:50.714Z,14.35
2022-11-30T16:27:24.082Z,12.07
2022-11-30T16:29:58.890Z,15.90
2022-11-30T16:32:32.338Z,14.13
2022-11-30T16:35:19.572Z,15.10
2022-11-30T16:37:53.551Z,12.60
2022-11-30T16:40:26.922Z,13.70
2022-11-30T16:43:00.320Z,16.42
2022-11-30T16:45:37.395Z,14.52
2022-11-30T16:48:11.184Z,22.63
2022-11-30T16:50:45.001Z,15.43
2022-11-30T16:53:18.708Z,23.95
2022-11-30T16:55:51.960Z,12.93
2022-11-30T16:58:25.280Z,16.80
2022-11-30T17:01:00.358Z,12.82
2022-11-30T17:03:36.254Z,14.43
2022-11-30T17:06:15.003Z,14.60
2022-11-30T17:08:49.371Z,15.18
2022-11-30T17:11:28.998Z,15.27
2022-11-30T17:14:02.640Z,12.25
2022-11-30T17:16:37.412Z,14.60
2022-11-30T17:19:11.217Z,13.88
2022-11-30T17:21:44.925Z,15.20
2022-11-30T17:24:18.561Z,12.80
2022-11-30T17:26:51.996Z,17.60
2022-11-30T17:29:25.294Z,11.65
2022-11-30T17:32:00.011Z,12.88
2022-11-30T17:34:33.343Z,13.23
2022-11-30T17:37:06.599Z,15.27
2022-11-30T17:39:39.910Z,12.98
2022-11-30T17:42:13.221Z,13.10
2022-11-30T17:44:47.145Z,14.45
2022-11-30T17:47:22.579Z,15.02
2022-11-30T17:49:56.734Z,15.52
2022-11-30T17:52:29.977Z,14.02
2022-11-30T17:55:03.338Z,14.45
2022-11-30T17:57:38.840Z,14.88
2022-11-30T18:00:13.124Z,15.18
2022-11-30T18:02:51.248Z,17.65
2022-11-30T18:05:24.761Z,18.80
2022-11-30T18:07:58.142Z,18.33
2022-11-30T18:10:31.488Z,18.90
2022-11-30T18:13:04.868Z,18.65
2022-11-30T18:15:38.345Z,16.75
2022-11-30T18:18:13.130Z,14.75
2022-11-30T18:20:46.413Z,16.38
2022-11-30T18:23:19.723Z,17.05
2022-11-30T18:25:53.057Z,15.43
2022-11-30T18:28:26.397Z,15.32
2022-11-30T18:30:59.913Z,17.27
2022-11-30T18:33:35.007Z,15.77
2022-11-30T18:36:08.450Z,15.10
2022-11-30T18:38:42.469Z,15.25
2022-11-30T18:41:15.787Z,17.35
2022-11-30T18:43:49.058Z,17.98
2022-11-30T18:46:22.728Z,18.45
2022-11-30T18:48:59.113Z,15.93
2022-11-30T18:51:32.482Z,17.33
2022-11-30T18:54:08.689Z,16.15
2022-11-30T18:56:42.185Z,15.07
2022-11-30T18:59:16.122Z,15.02
2022-11-30T19:01:51.009Z,16.33
2022-11-30T19:04:29.674Z,17.38
2022-11-30T19:07:03.859Z,16.05
2022-11-30T19:09:37.263Z,16.23
2022-11-30T19:12:10.532Z,17.15
2022-11-30T19:14:45.373Z,16.05
2022-11-30T19:17:19.053Z,17.35
2022-11-30T19:19:53.728Z,16.33
2022-11-30T19:22:30.159Z,15.80
2022-11-30T19:25:03.413Z,16.48
2022-11-30T19:27:36.939Z,17.20
2022-11-30T19:30:11.568Z,17.40
2022-11-30T19:32:44.865Z,17.50
2022-11-30T19:35:19.611Z,20.20
2022-11-30T19:37:53.063Z,18.55
2022-11-30T19:40:26.388Z,19.10
2022-11-30T19:43:00.246Z,20.65
2022-11-30T19:45:35.542Z,22.48
2022-11-30T19:48:08.934Z,24.13
2022-11-30T19:50:43.652Z,28.20
2022-11-30T19:53:16.991Z,26.83
2022-11-30T19:55:50.353Z,24.50
2022-11-30T19:58:23.793Z,22.98
2022-11-30T20:00:57.353Z,27.33
2022-11-30T20:03:35.450Z,26.35
2022-11-30T20:06:10.271Z,27.45
2022-11-30T20:08:43.614Z,27.38
2022-11-30T20:11:17.308Z,39.53
2022-11-30T20:13:51.464Z,37.17
2022-11-30T20:16:25.092Z,28.40
2022-11-30T20:19:01.266Z,25.17
2022-11-30T20:21:37.063Z,24.92
2022-11-30T20:24:12.777Z,24.20
2022-11-30T20:26:46.745Z,22.52
2022-11-30T20:29:20.061Z,22.88
2022-11-30T20:31:53.367Z,25.05
2022-11-30T20:34:32.675Z,27.35
2022-11-30T20:37:08.841Z,22.00
2022-11-30T20:39:45.776Z,22.20
2022-11-30T20:42:19.596Z,28.65
2022-11-30T20:44:52.926Z,31.35
2022-11-30T20:47:26.211Z,28.45
2022-11-30T20:49:59.849Z,27.60
2022-11-30T20:52:35.258Z,28.73
2022-11-30T20:55:09.078Z,23.98
2022-11-30T20:57:42.392Z,21.38
2022-11-30T21:00:17.587Z,21.88
2022-11-30T21:02:51.076Z,19.35
2022-11-30T21:05:24.411Z,19.30
2022-11-30T21:07:59.104Z,21.13
2022-11-30T21:10:32.570Z,22.40
2022-11-30T21:13:05.889Z,19.90
2022-11-30T21:15:39.228Z,19.98
2022-11-30T21:18:12.564Z,20.30
2022-11-30T21:20:45.802Z,19.92
2022-11-30T21:23:24.863Z,18.08
2022-11-30T21:26:03.290Z,19.15
2022-11-30T21:28:38.401Z,22.50
2022-11-30T21:31:11.884Z,24.00
2022-11-30T21:33:52.434Z,26.00
2022-11-30T21:36:26.682Z,29.05
2022-11-30T21:39:06.793Z,28.55
2022-11-30T21:41:41.181Z,25.58
2022-11-30T21:44:16.398Z,24.33
2022-11-30T21:46:50.448Z,27.15
2022-11-30T21:49:23.773Z,23.52
2022-11-30T21:51:57.308Z,24.15
2022-11-30T21:54:32.143Z,23.13
2022-11-30T21:57:05.512Z,22.80
2022-11-30T21:59:38.805Z,24.73
2022-11-30T22:02:13.104Z,22.50
2022-11-30T22:04:47.187Z,22.42
2022-11-30T22:07:31.834Z,24.83
2022-11-30T22:10:07.945Z,22.05
2022-11-30T22:12:41.204Z,21.80
2022-11-30T22:15:14.760Z,21.00
2022-11-30T22:17:48.092Z,19.33
2022-11-30T22:20:21.404Z,25.23
2022-11-30T22:22:54.708Z,21.33
2022-11-30T22:25:29.404Z,21.75
2022-11-30T22:28:02.692Z,21.27
2022-11-30T22:30:36.025Z,19.48
2022-11-30T22:33:09.317Z,19.40
2022-11-30T22:35:42.629Z,23.27
2022-11-30T22:38:16.461Z,22.95
2022-11-30T22:40:51.124Z,22.92
2022-11-30T22:43:24.371Z,18.63
2022-11-30T22:46:03.651Z,19.45
2022-11-30T22:48:37.541Z,20.00
2022-11-30T22:51:13.371Z,21.38
2022-11-30T22:53:47.469Z,20.35
2022-11-30T22:56:23.385Z,20.40
2022-11-30T22:58:59.007Z,20.00
2022-11-30T23:01:34.613Z,17.70
2022-11-30T23:04:10.188Z,21.45
2022-11-30T23:06:44.859Z,17.55
2022-11-30T23:09:20.803Z,18.08
2022-11-30T23:11:55.477Z,19.70
2022-11-30T23:14:28.849Z,19.10
2022-11-30T23:17:02.191Z,18.10
2022-11-30T23:19:35.473Z,18.10
2022-11-30T23:22:08.749Z,18.63
2022-11-30T23:24:42.066Z,19.70
2022-11-30T23:27:16.870Z,23.05
2022-11-30T23:29:50.290Z,17.90
2022-11-30T23:32:23.995Z,20.35
2022-11-30T23:34:57.327Z,18.52
2022-11-30T23:37:30.769Z,18.95
2022-11-30T23:40:04.455Z,19.88
2022-11-30T23:42:39.277Z,20.40
2022-11-30T23:45:13.072Z,20.77
2022-11-30T23:47:46.329Z,20.40
2022-11-30T23:50:19.906Z,17.33
2022-11-30T23:52:53.149Z,17.50
2022-11-30T23:55:26.600Z,17.50
2022-11-30T23:58:01.226Z,17.30
